Wyandotte, Michigan
Current Conditions -  °F | °C
As of 7:34 PM on Saturday 25 Oct 2014 (Local Time) from KONZ Reporting Station
Clear Clear  
Wind Chill: 63°   Ceiling: Unl
Heat Index: 63°   Visibility: 10mi
Dew Point: 25°   Wind: 16mph
Humidity: 24%   Direction: 290°WNW
Pressure: 29.77"   Gusts: 26mph
Location:  42.2°N, 83.15°W
Report Text: KONZ 252334Z AUTO 29014G23KT 10SM CLR 17/M04 A2977 RMK AO2
Loading
Personal Weather Stations






























Interactive Weather Map New forecast layout! Learn more

10-Day Weather Forecast

Advertisements
Track Severe Weather on mobile